Terminal Aerodrome Forecast
Issued by NWS Louisville, KY

Home | Current Version | Previous Version | Text Only | Print | Product List | Glossary On
Versions: 1 2 3 4 5 6 7 8 9 10 11 12 13 14 15
004
FTUS43 KLMK 051720
TAFSDF
TAF
KSDF 051720Z 0518/0624 09005KT P6SM BKN021 OVC200
      TEMPO 0519/0523 SCT021 BKN150
     FM052300 08003KT P6SM SCT025 BKN120
     FM060700 07003KT 5SM -RA BR BKN025
     FM060900 VRB06KT 2SM -RA BR OVC007
     FM061700 32009KT 4SM BR OVC009
     FM061900 30012KT P6SM OVC012=

USA.gov is the U.S. government's official web portal to all federal, state and local government web resources and services.